Terminal Aerodrome Forecast
Issued by NWS

Home | Current Version | Previous Version | Text Only | Print | Product List | Glossary On
Versions: 1 2 3 4 5 6 7 8 9 10 11 12 13 14 15 16 17 18 19 20 21 22 23 24
000
FTUS44 KCRP 021800 AAA
TAFLRD
TAF AMD
KLRD 021854Z 0219/0318 35006KT P6SM OVC008
      TEMPO 0219/0221 4SM -RA BR OVC005
     FM030200 07004KT 4SM BR OVC006
     FM030500 12003KT 2SM -RA BR OVC004
     FM031100 12005KT 1SM -RA BR OVC003
     FM031600 14006KT 4SM BR OVC007=

USA.gov is the U.S. government's official web portal to all federal, state and local government web resources and services.